createdAt,value
2023-03-27T00:01:18.046Z,93112.00
2023-03-27T00:03:49.560Z,93108.56
2023-03-27T00:06:18.682Z,93110.88
2023-03-27T00:08:47.218Z,93105.91
2023-03-27T00:11:15.440Z,93106.28
2023-03-27T00:13:49.958Z,93106.59
2023-03-27T00:16:18.801Z,93100.88
2023-03-27T00:18:46.009Z,93093.25
2023-03-27T00:21:12.810Z,93097.06
2023-03-27T00:23:39.369Z,93103.56
2023-03-27T00:26:06.382Z,93097.84
2023-03-27T00:28:33.002Z,93084.75
2023-03-27T00:31:00.267Z,93094.75
2023-03-27T00:33:27.356Z,93093.19
2023-03-27T00:35:54.564Z,93101.81
2023-03-27T00:38:21.578Z,93096.28
2023-03-27T00:40:50.737Z,93093.97
2023-03-27T00:43:23.132Z,93087.13
2023-03-27T00:45:52.767Z,93079.06
2023-03-27T00:48:20.758Z,93075.63
2023-03-27T00:50:49.674Z,93065.28
2023-03-27T00:53:20.710Z,93057.50
2023-03-27T00:55:51.706Z,93059.13
2023-03-27T00:58:27.447Z,93056.16
2023-03-27T01:00:56.463Z,93059.78
2023-03-27T01:03:26.553Z,93048.22
2023-03-27T01:05:56.045Z,93047.97
2023-03-27T01:08:24.563Z,93046.09
2023-03-27T01:11:04.645Z,93039.19
2023-03-27T01:13:59.221Z,93031.19
2023-03-27T01:16:33.810Z,93029.34
2023-03-27T01:19:21.334Z,93030.09
2023-03-27T01:21:56.790Z,93019.75
2023-03-27T01:24:51.336Z,93019.00
2023-03-27T01:27:39.545Z,93007.91
2023-03-27T01:30:26.045Z,93010.94
2023-03-27T01:33:20.466Z,93026.13
2023-03-27T01:36:02.293Z,93022.00
2023-03-27T01:38:43.997Z,93015.84
2023-03-27T01:41:28.130Z,93009.34
2023-03-27T01:44:00.806Z,93004.47
2023-03-27T01:46:41.799Z,92996.44
2023-03-27T01:49:13.569Z,92988.03
2023-03-27T01:51:46.294Z,92977.69
2023-03-27T01:54:18.894Z,92992.22
2023-03-27T01:56:53.955Z,92989.94
2023-03-27T01:59:24.831Z,92996.06
2023-03-27T02:01:56.464Z,92995.66
2023-03-27T02:04:33.471Z,92989.78
2023-03-27T02:07:05.990Z,92986.09
2023-03-27T02:09:41.454Z,92978.41
2023-03-27T02:12:13.408Z,92994.75
2023-03-27T02:14:54.187Z,92956.13
2023-03-27T02:17:26.371Z,92986.78
2023-03-27T02:20:00.870Z,92977.19
2023-03-27T02:22:37.281Z,92977.00
2023-03-27T02:25:25.268Z,92974.84
2023-03-27T02:28:16.346Z,92949.34
2023-03-27T02:31:06.239Z,92953.56
2023-03-27T02:34:02.247Z,92930.75
2023-03-27T02:36:44.568Z,92941.59
2023-03-27T02:39:22.654Z,92929.78
2023-03-27T02:42:02.379Z,92923.91
2023-03-27T02:44:31.945Z,92918.34
2023-03-27T02:47:07.682Z,92907.03
2023-03-27T02:49:46.294Z,92884.84
2023-03-27T02:52:27.372Z,92899.50
2023-03-27T02:55:06.044Z,92893.03
2023-03-27T02:57:38.807Z,92879.66
2023-03-27T03:00:14.267Z,92882.41
2023-03-27T03:02:41.766Z,92882.03
2023-03-27T03:05:17.915Z,92887.34
2023-03-27T03:07:46.261Z,92879.75
2023-03-27T03:10:13.577Z,92866.75
2023-03-27T03:12:40.227Z,92860.25
2023-03-27T03:15:11.316Z,92850.69
2023-03-27T03:17:38.081Z,92867.19
2023-03-27T03:20:05.834Z,92844.66
2023-03-27T03:22:32.439Z,92854.84
2023-03-27T03:24:59.049Z,92842.88
2023-03-27T03:27:25.691Z,92852.06
2023-03-27T03:29:53.205Z,92856.59
2023-03-27T03:32:19.860Z,92842.09
2023-03-27T03:34:49.237Z,92840.16
2023-03-27T03:37:15.995Z,92855.59
2023-03-27T03:39:43.012Z,92837.84
2023-03-27T03:42:09.688Z,92838.38
2023-03-27T03:44:49.172Z,92828.81
2023-03-27T03:47:15.759Z,92842.56
2023-03-27T03:49:42.699Z,92836.03
2023-03-27T03:52:09.295Z,92833.75
2023-03-27T03:54:38.704Z,92838.72
2023-03-27T03:57:05.624Z,92831.91
2023-03-27T03:59:32.339Z,92844.13
2023-03-27T04:01:58.988Z,92833.09
2023-03-27T04:04:25.597Z,92854.88
2023-03-27T04:06:53.114Z,92836.97
2023-03-27T04:09:22.277Z,92830.78
2023-03-27T04:11:48.917Z,92844.56
2023-03-27T04:14:15.676Z,92838.06
2023-03-27T04:16:42.281Z,92830.84
2023-03-27T04:19:09.055Z,92834.66
2023-03-27T04:21:36.512Z,92842.28
2023-03-27T04:24:03.171Z,92814.03
2023-03-27T04:26:30.011Z,92834.22
2023-03-27T04:28:56.748Z,92825.47
2023-03-27T04:31:23.420Z,92815.94
2023-03-27T04:33:52.113Z,92830.81
2023-03-27T04:36:19.681Z,92823.59
2023-03-27T04:38:48.133Z,92809.81
2023-03-27T04:41:14.843Z,92803.31
2023-03-27T04:43:41.904Z,92807.91
2023-03-27T04:46:09.190Z,92798.75
2023-03-27T04:48:38.472Z,92808.28
2023-03-27T04:51:08.371Z,92788.81
2023-03-27T04:53:36.466Z,92801.41
2023-03-27T04:56:03.892Z,92786.16
2023-03-27T04:58:30.608Z,92798.38
2023-03-27T05:00:58.004Z,92797.63
2023-03-27T05:03:25.946Z,92783.84
2023-03-27T05:05:52.819Z,92811.72
2023-03-27T05:08:19.856Z,92773.88
2023-03-27T05:10:47.140Z,92774.19
2023-03-27T05:13:14.015Z,92786.81
2023-03-27T05:15:41.166Z,92781.16
2023-03-27T05:18:09.242Z,92773.47
2023-03-27T05:20:37.000Z,92772.00
2023-03-27T05:23:04.266Z,92745.25
2023-03-27T05:25:32.699Z,92747.13
2023-03-27T05:28:00.610Z,92723.75
2023-03-27T05:30:28.246Z,92717.38
2023-03-27T05:32:54.957Z,92708.53
2023-03-27T05:35:24.000Z,92689.47
2023-03-27T05:37:53.299Z,92673.50
2023-03-27T05:40:22.530Z,92671.09
2023-03-27T05:42:50.417Z,92659.19
2023-03-27T05:45:18.039Z,92625.81
2023-03-27T05:47:48.153Z,92624.66
2023-03-27T05:50:16.553Z,92601.25
2023-03-27T05:52:43.425Z,92583.75
2023-03-27T05:55:10.509Z,92587.25
2023-03-27T05:57:41.553Z,92586.44
2023-03-27T06:00:14.037Z,92572.56
2023-03-27T06:02:45.024Z,92557.53
2023-03-27T06:05:16.533Z,92557.91
2023-03-27T06:07:43.907Z,92535.56
2023-03-27T06:10:14.284Z,92515.19
2023-03-27T06:12:42.837Z,92520.03
2023-03-27T06:15:10.187Z,92535.19
2023-03-27T06:17:42.290Z,92539.16
2023-03-27T06:20:15.435Z,92536.47
2023-03-27T06:22:47.147Z,92543.97
2023-03-27T06:25:14.497Z,92529.53
2023-03-27T06:27:48.597Z,92522.66
2023-03-27T06:30:18.131Z,92546.09
2023-03-27T06:32:49.440Z,92554.03
2023-03-27T06:35:17.376Z,92583.16
2023-03-27T06:37:50.737Z,92590.44
2023-03-27T06:40:23.162Z,92596.13
2023-03-27T06:42:51.028Z,92598.41
2023-03-27T06:45:17.652Z,92596.03
2023-03-27T06:47:54.792Z,92603.16
2023-03-27T06:50:25.495Z,92611.47
2023-03-27T06:52:52.173Z,92591.28
2023-03-27T06:55:21.793Z,92597.97
2023-03-27T06:57:51.184Z,92600.00
2023-03-27T07:00:20.334Z,92595.72
2023-03-27T07:02:47.195Z,92589.13
2023-03-27T07:05:15.638Z,92601.63
2023-03-27T07:07:43.135Z,92578.84
2023-03-27T07:10:11.021Z,92578.53
2023-03-27T07:12:38.315Z,92587.03
2023-03-27T07:15:06.322Z,92574.81
2023-03-27T07:17:45.857Z,92573.53
2023-03-27T07:20:15.164Z,92578.00
2023-03-27T07:22:43.151Z,92572.13
2023-03-27T07:25:11.328Z,92567.84
2023-03-27T07:27:38.835Z,92581.75
2023-03-27T07:30:08.188Z,92580.66
2023-03-27T07:32:37.896Z,92580.22
2023-03-27T07:35:05.530Z,92575.84
2023-03-27T07:37:32.383Z,92568.50
2023-03-27T07:39:58.999Z,92576.03
2023-03-27T07:42:26.108Z,92565.69
2023-03-27T07:44:52.969Z,92566.78
2023-03-27T07:47:20.059Z,92564.09
2023-03-27T07:49:46.698Z,92585.06
2023-03-27T07:52:14.729Z,92577.16
2023-03-27T07:54:43.190Z,92580.53
2023-03-27T07:57:11.368Z,92573.44
2023-03-27T07:59:38.293Z,92560.06
2023-03-27T08:02:05.603Z,92560.09
2023-03-27T08:04:32.246Z,92543.69
2023-03-27T08:06:59.368Z,92553.91
2023-03-27T08:09:27.147Z,92544.97
2023-03-27T08:11:53.720Z,92540.47
2023-03-27T08:14:20.362Z,92542.34
2023-03-27T08:16:47.093Z,92537.44
2023-03-27T08:19:14.187Z,92537.88
2023-03-27T08:21:40.859Z,92533.47
2023-03-27T08:24:08.234Z,92522.78
2023-03-27T08:26:36.340Z,92521.31
2023-03-27T08:29:03.686Z,92514.06
2023-03-27T08:31:31.429Z,92507.34
2023-03-27T08:33:58.118Z,92513.81
2023-03-27T08:36:24.783Z,92504.09
2023-03-27T08:38:51.592Z,92507.38
2023-03-27T08:41:38.677Z,92530.53
2023-03-27T08:44:11.168Z,92537.47
2023-03-27T08:46:42.970Z,92558.78
2023-03-27T08:49:21.270Z,92531.59
2023-03-27T08:52:23.901Z,92500.50
2023-03-27T08:54:58.354Z,92472.59
2023-03-27T08:57:28.379Z,92457.78
2023-03-27T08:59:58.919Z,92451.06
2023-03-27T09:02:34.369Z,92445.53
2023-03-27T09:05:15.542Z,92430.84
2023-03-27T09:07:43.563Z,92412.34
2023-03-27T09:10:31.670Z,92415.03
2023-03-27T09:13:07.858Z,92400.50
2023-03-27T09:15:40.867Z,92412.25
2023-03-27T09:18:21.936Z,92405.19
2023-03-27T09:20:53.538Z,92428.63
2023-03-27T09:23:37.145Z,92438.03
2023-03-27T09:26:17.316Z,92484.03
2023-03-27T09:29:24.952Z,92493.09
2023-03-27T09:31:57.255Z,92476.25
2023-03-27T09:34:34.627Z,92465.53
2023-03-27T09:37:02.545Z,92458.81
2023-03-27T09:39:34.009Z,92454.09
2023-03-27T09:42:09.208Z,92461.34
2023-03-27T09:44:40.634Z,92467.63
2023-03-27T09:47:15.472Z,92450.94
2023-03-27T09:50:35.160Z,92438.47
2023-03-27T09:53:13.525Z,92444.16
2023-03-27T09:56:03.609Z,92427.28
2023-03-27T09:58:40.859Z,92433.72
2023-03-27T10:01:15.738Z,92452.84
2023-03-27T10:04:01.215Z,92460.19
2023-03-27T10:06:38.781Z,92458.53
2023-03-27T10:09:35.733Z,92471.91
2023-03-27T10:12:18.293Z,92482.16
2023-03-27T10:14:47.699Z,92473.19
2023-03-27T10:17:23.509Z,92470.72
2023-03-27T10:19:55.158Z,92480.81
2023-03-27T10:22:38.358Z,92448.53
2023-03-27T10:25:15.729Z,92449.56
2023-03-27T10:27:43.840Z,92454.66
2023-03-27T10:30:27.404Z,92443.81
2023-03-27T10:32:54.265Z,92429.69
2023-03-27T10:35:27.154Z,92437.97
2023-03-27T10:37:54.801Z,92424.75
2023-03-27T10:40:27.696Z,92420.47
2023-03-27T10:43:02.251Z,92413.38
2023-03-27T10:45:31.471Z,92402.00
2023-03-27T10:48:02.270Z,92392.75
2023-03-27T10:50:35.967Z,92380.97
2023-03-27T10:53:21.816Z,92377.03
2023-03-27T10:56:02.384Z,92343.34
2023-03-27T10:58:47.319Z,92363.47
2023-03-27T11:01:28.925Z,92355.84
2023-03-27T11:04:00.062Z,92366.31
2023-03-27T11:06:33.475Z,92368.13
2023-03-27T11:09:06.275Z,92359.09
2023-03-27T11:11:37.990Z,92371.72
2023-03-27T11:14:17.601Z,92387.97
2023-03-27T11:16:57.715Z,92385.81
2023-03-27T11:19:37.800Z,92423.66
2023-03-27T11:22:11.493Z,92423.66
2023-03-27T11:25:18.558Z,92421.97
2023-03-27T11:28:18.435Z,92479.25
2023-03-27T11:31:14.953Z,92474.34
2023-03-27T11:33:52.562Z,92475.69
2023-03-27T11:36:24.494Z,92482.75
2023-03-27T11:39:11.274Z,92480.81
2023-03-27T11:41:37.844Z,92491.91
2023-03-27T11:44:04.852Z,92508.59
2023-03-27T11:47:08.490Z,92510.88
2023-03-27T11:50:29.582Z,92541.97
2023-03-27T11:53:05.072Z,92554.44
2023-03-27T11:55:56.595Z,92560.41
2023-03-27T11:58:38.198Z,92568.16
2023-03-27T12:01:14.461Z,92588.00
2023-03-27T12:03:45.628Z,92621.94
2023-03-27T12:06:29.346Z,92625.25
2023-03-27T12:09:02.228Z,92624.19
2023-03-27T12:11:29.903Z,92623.50
2023-03-27T12:14:17.680Z,92652.72
2023-03-27T12:17:08.699Z,92644.59
2023-03-27T12:19:53.748Z,92652.84
2023-03-27T12:22:41.875Z,92671.94
2023-03-27T12:25:40.343Z,92673.75
2023-03-27T12:28:24.155Z,92668.25
2023-03-27T12:31:19.399Z,92661.38
2023-03-27T12:34:17.967Z,92648.13
2023-03-27T12:36:48.233Z,92631.13
2023-03-27T12:39:21.180Z,92608.00
2023-03-27T12:41:47.770Z,92595.19
2023-03-27T12:44:18.686Z,92567.91
2023-03-27T12:47:09.711Z,92557.25
2023-03-27T12:49:46.336Z,92540.66
2023-03-27T12:52:15.151Z,92505.63
2023-03-27T12:55:13.913Z,92502.19
2023-03-27T12:57:44.856Z,92517.06
2023-03-27T13:00:23.894Z,92502.59
2023-03-27T13:03:27.600Z,92482.00
2023-03-27T13:06:12.709Z,92470.16
2023-03-27T13:09:03.067Z,92461.56
2023-03-27T13:12:19.182Z,92457.78
2023-03-27T13:15:13.358Z,92437.56
2023-03-27T13:17:48.638Z,92425.47
2023-03-27T13:20:34.962Z,92424.75
2023-03-27T13:23:29.235Z,92423.91
2023-03-27T13:26:08.806Z,92429.34
2023-03-27T13:28:42.337Z,92425.53
2023-03-27T13:31:12.298Z,92440.97
2023-03-27T13:33:47.534Z,92448.28
2023-03-27T13:36:20.019Z,92461.13
2023-03-27T13:38:52.702Z,92462.69
2023-03-27T13:41:44.197Z,92463.16
2023-03-27T13:44:43.101Z,92471.81
2023-03-27T13:47:34.259Z,92468.31
2023-03-27T13:50:19.205Z,92460.25
2023-03-27T13:53:13.552Z,92452.41
2023-03-27T13:56:01.783Z,92441.00
2023-03-27T13:58:53.682Z,92443.38
2023-03-27T14:01:34.271Z,92431.53
2023-03-27T14:04:17.838Z,92430.97
2023-03-27T14:07:02.668Z,92422.34
2023-03-27T14:09:41.253Z,92429.66
2023-03-27T14:12:14.239Z,92422.84
2023-03-27T14:15:00.532Z,92436.38
2023-03-27T14:18:05.891Z,92433.50
2023-03-27T14:20:55.616Z,92431.00
2023-03-27T14:23:29.878Z,92427.22
2023-03-27T14:26:03.700Z,92428.13
2023-03-27T14:28:51.631Z,92425.00
2023-03-27T14:31:19.622Z,92427.44
2023-03-27T14:33:57.708Z,92422.00
2023-03-27T14:36:26.487Z,92429.59
2023-03-27T14:38:53.205Z,92432.84
2023-03-27T14:41:26.674Z,92442.53
2023-03-27T14:43:54.361Z,92450.66
2023-03-27T14:46:23.552Z,92458.53
2023-03-27T14:48:55.990Z,92459.13
2023-03-27T14:51:42.153Z,92448.66
2023-03-27T14:54:18.280Z,92463.53
2023-03-27T14:56:52.646Z,92460.31
2023-03-27T14:59:22.834Z,92461.16
2023-03-27T15:01:51.024Z,92453.47
2023-03-27T15:04:19.325Z,92443.56
2023-03-27T15:06:46.024Z,92431.63
2023-03-27T15:09:15.745Z,92428.31
2023-03-27T15:11:53.565Z,92433.50
2023-03-27T15:14:31.808Z,92422.44
2023-03-27T15:17:19.351Z,92419.09
2023-03-27T15:19:56.719Z,92422.28
2023-03-27T15:22:33.123Z,92428.09
2023-03-27T15:25:08.787Z,92438.28
2023-03-27T15:27:42.696Z,92448.97
2023-03-27T15:30:28.211Z,92433.75
2023-03-27T15:32:57.333Z,92433.66
2023-03-27T15:35:42.339Z,92440.97
2023-03-27T15:38:14.186Z,92438.50
2023-03-27T15:40:46.327Z,92440.56
2023-03-27T15:43:12.969Z,92446.56
2023-03-27T15:45:56.826Z,92434.59
2023-03-27T15:48:48.336Z,92437.81
2023-03-27T15:51:21.152Z,92435.03
2023-03-27T15:53:49.657Z,92443.19
2023-03-27T15:56:29.963Z,92436.75
2023-03-27T15:59:02.603Z,92446.91
2023-03-27T16:01:39.322Z,92460.69
2023-03-27T16:04:15.268Z,92470.47
2023-03-27T16:07:05.217Z,92472.84
2023-03-27T16:09:47.268Z,92465.22
2023-03-27T16:12:16.214Z,92468.16
2023-03-27T16:14:48.939Z,92464.38
2023-03-27T16:17:20.620Z,92468.66
2023-03-27T16:19:53.567Z,92466.63
2023-03-27T16:22:34.688Z,92457.31
2023-03-27T16:25:06.890Z,92457.97
2023-03-27T16:27:54.999Z,92457.03
2023-03-27T16:30:30.702Z,92466.75
2023-03-27T16:32:57.578Z,92459.13
2023-03-27T16:35:24.273Z,92468.41
2023-03-27T16:37:50.918Z,92476.09
2023-03-27T16:40:17.481Z,92478.44
2023-03-27T16:42:44.199Z,92476.69
2023-03-27T16:45:11.245Z,92470.94
2023-03-27T16:47:38.021Z,92474.69
2023-03-27T16:50:10.920Z,92480.22
2023-03-27T16:52:38.461Z,92486.41
2023-03-27T16:55:07.486Z,92491.66
2023-03-27T16:57:34.612Z,92486.59
2023-03-27T17:00:02.256Z,92490.25
2023-03-27T17:02:30.759Z,92487.31
2023-03-27T17:04:58.609Z,92483.50
2023-03-27T17:07:27.473Z,92480.34
2023-03-27T17:09:54.762Z,92480.06
2023-03-27T17:12:21.511Z,92491.88
2023-03-27T17:14:48.245Z,92499.41
2023-03-27T17:17:14.862Z,92508.66
2023-03-27T17:19:41.451Z,92495.59
2023-03-27T17:22:07.987Z,92496.94
2023-03-27T17:24:45.755Z,92509.09
2023-03-27T17:27:20.423Z,92519.41
2023-03-27T17:29:47.024Z,92530.75
2023-03-27T17:32:13.631Z,92527.97
2023-03-27T17:34:41.570Z,92531.88
2023-03-27T17:37:08.197Z,92529.09
2023-03-27T17:39:34.747Z,92539.19
2023-03-27T17:42:02.184Z,92544.53
2023-03-27T17:44:28.745Z,92550.41
2023-03-27T17:46:55.574Z,92550.41
2023-03-27T17:49:22.294Z,92556.22
2023-03-27T17:51:48.909Z,92548.06
2023-03-27T17:54:15.551Z,92543.44
2023-03-27T17:56:42.250Z,92541.50
2023-03-27T17:59:10.123Z,92535.13
2023-03-27T18:01:36.830Z,92528.09
2023-03-27T18:04:03.941Z,92539.69
2023-03-27T18:06:30.677Z,92537.56
2023-03-27T18:08:58.606Z,92548.06
2023-03-27T18:11:30.093Z,92581.69
2023-03-27T18:13:57.606Z,92625.31
2023-03-27T18:16:25.093Z,92639.50
2023-03-27T18:18:55.567Z,92638.06
2023-03-27T18:21:23.197Z,92651.22
2023-03-27T18:23:53.471Z,92652.16
2023-03-27T18:26:21.450Z,92657.81
2023-03-27T18:28:48.979Z,92656.53
2023-03-27T18:31:17.854Z,92653.06
2023-03-27T18:33:44.874Z,92666.69
2023-03-27T18:36:12.063Z,92667.63
2023-03-27T18:38:40.345Z,92664.34
2023-03-27T18:41:08.080Z,92668.41
2023-03-27T18:43:34.830Z,92668.91
2023-03-27T18:46:05.783Z,92665.13
2023-03-27T18:48:33.686Z,92661.34
2023-03-27T18:51:03.147Z,92666.50
2023-03-27T18:53:30.321Z,92667.31
2023-03-27T18:55:58.620Z,92676.41
2023-03-27T18:58:27.798Z,92685.53
2023-03-27T19:00:57.493Z,92691.00
2023-03-27T19:03:26.715Z,92677.88
2023-03-27T19:05:53.950Z,92689.91
2023-03-27T19:08:21.749Z,92698.91
2023-03-27T19:10:48.936Z,92703.19
2023-03-27T19:13:16.060Z,92707.13
2023-03-27T19:15:43.134Z,92711.75
2023-03-27T19:18:10.211Z,92714.03
2023-03-27T19:20:36.879Z,92723.06
2023-03-27T19:23:03.994Z,92723.72
2023-03-27T19:25:34.131Z,92729.81
2023-03-27T19:28:05.891Z,92744.09
2023-03-27T19:30:33.660Z,92741.84
2023-03-27T19:33:00.527Z,92740.94
2023-03-27T19:35:27.645Z,92740.75
2023-03-27T19:37:54.656Z,92747.59
2023-03-27T19:40:25.530Z,92744.00
2023-03-27T19:42:52.534Z,92746.88
2023-03-27T19:45:19.366Z,92745.13
2023-03-27T19:47:46.014Z,92747.56
2023-03-27T19:50:14.638Z,92755.03
2023-03-27T19:52:42.517Z,92762.34
2023-03-27T19:55:09.411Z,92755.44
2023-03-27T19:57:36.119Z,92764.16
2023-03-27T20:00:09.514Z,92767.00
2023-03-27T20:02:36.973Z,92770.41
2023-03-27T20:05:03.834Z,92777.41
2023-03-27T20:07:30.491Z,92771.78
2023-03-27T20:09:57.081Z,92775.06
2023-03-27T20:12:24.967Z,92779.50
2023-03-27T20:15:02.837Z,92782.44
2023-03-27T20:17:37.324Z,92779.31
2023-03-27T20:20:06.093Z,92779.63
2023-03-27T20:22:38.588Z,92788.75
2023-03-27T20:25:10.018Z,92793.47
2023-03-27T20:27:36.655Z,92802.13
2023-03-27T20:30:03.376Z,92791.38
2023-03-27T20:32:30.116Z,92806.50
2023-03-27T20:34:56.748Z,92799.91
2023-03-27T20:37:27.200Z,92799.13
2023-03-27T20:39:54.358Z,92796.81
2023-03-27T20:42:23.211Z,92807.31
2023-03-27T20:44:58.875Z,92809.84
2023-03-27T20:47:25.610Z,92814.84
2023-03-27T20:49:52.384Z,92803.66
2023-03-27T20:52:19.913Z,92798.88
2023-03-27T20:54:48.002Z,92807.50
2023-03-27T20:57:14.822Z,92809.19
2023-03-27T20:59:41.499Z,92803.88
2023-03-27T21:02:15.861Z,92807.66
2023-03-27T21:04:42.499Z,92817.53
2023-03-27T21:07:09.765Z,92801.06
2023-03-27T21:09:38.239Z,92801.38
2023-03-27T21:12:05.176Z,92792.19
2023-03-27T21:14:33.892Z,92799.00
2023-03-27T21:17:00.579Z,92791.44
2023-03-27T21:19:27.438Z,92794.50
2023-03-27T21:21:54.306Z,92795.69
2023-03-27T21:24:21.146Z,92795.34
2023-03-27T21:26:47.891Z,92804.69
2023-03-27T21:29:15.498Z,92795.84
2023-03-27T21:31:43.156Z,92798.53
2023-03-27T21:34:12.356Z,92800.31
2023-03-27T21:36:39.061Z,92804.28
2023-03-27T21:39:05.907Z,92809.31
2023-03-27T21:41:32.742Z,92811.63
2023-03-27T21:43:59.375Z,92814.09
2023-03-27T21:46:26.197Z,92808.34
2023-03-27T21:48:53.198Z,92815.16
2023-03-27T21:51:19.950Z,92810.63
2023-03-27T21:53:46.895Z,92821.06
2023-03-27T21:56:13.826Z,92834.41
2023-03-27T21:58:40.602Z,92828.06
2023-03-27T22:01:07.566Z,92830.91
2023-03-27T22:03:34.168Z,92829.50
2023-03-27T22:06:11.771Z,92834.16
2023-03-27T22:08:39.921Z,92838.22
2023-03-27T22:11:06.806Z,92841.66
2023-03-27T22:13:36.281Z,92839.75
2023-03-27T22:16:11.973Z,92848.34
2023-03-27T22:18:39.734Z,92840.56
2023-03-27T22:21:22.045Z,92850.03
2023-03-27T22:23:50.977Z,92858.97
2023-03-27T22:26:23.361Z,92860.03
2023-03-27T22:28:52.514Z,92878.53
2023-03-27T22:31:20.310Z,92871.53
2023-03-27T22:33:47.871Z,92890.59
2023-03-27T22:36:14.526Z,92895.94
2023-03-27T22:38:41.596Z,92905.84
2023-03-27T22:41:10.367Z,92904.75
2023-03-27T22:43:37.067Z,92923.69
2023-03-27T22:46:09.057Z,92942.75
2023-03-27T22:48:35.884Z,92938.03
2023-03-27T22:51:02.709Z,92932.59
2023-03-27T22:53:31.914Z,92971.03
2023-03-27T22:56:00.024Z,92956.63
2023-03-27T22:58:27.439Z,92981.81
2023-03-27T23:00:55.450Z,92982.56
2023-03-27T23:03:23.341Z,92975.94
2023-03-27T23:05:51.081Z,92997.63
2023-03-27T23:08:19.920Z,93019.53
2023-03-27T23:10:47.075Z,93021.91
2023-03-27T23:13:13.807Z,93024.66
2023-03-27T23:15:40.418Z,93031.19
2023-03-27T23:18:07.049Z,93037.38
2023-03-27T23:20:33.734Z,93036.81
2023-03-27T23:23:00.557Z,93053.88
2023-03-27T23:25:27.192Z,93056.84
2023-03-27T23:27:53.805Z,93047.00
2023-03-27T23:30:20.536Z,93053.44
2023-03-27T23:32:47.178Z,93065.47
2023-03-27T23:35:14.116Z,93067.63
2023-03-27T23:37:40.971Z,93095.50
2023-03-27T23:40:08.429Z,93081.19
2023-03-27T23:42:35.029Z,93097.94
2023-03-27T23:45:02.273Z,93090.69
2023-03-27T23:47:28.863Z,93091.19
2023-03-27T23:49:55.454Z,93081.63
2023-03-27T23:52:22.076Z,93084.41
2023-03-27T23:54:48.668Z,93098.13
2023-03-27T23:57:15.383Z,93089.91
2023-03-27T23:59:41.969Z,93083.59
